sensor_id;sensor_type;location;lat;lon;timestamp;temperature;humidity
36372;DHT22;22398;51.346;12.372;2023-11-19T00:00:04;6.50;99.90
36372;DHT22;22398;51.346;12.372;2023-11-19T00:05:13;6.50;99.90
36372;DHT22;22398;51.346;12.372;2023-11-19T00:10:17;6.60;99.90
36372;DHT22;22398;51.346;12.372;2023-11-19T00:15:23;6.60;99.90
36372;DHT22;22398;51.346;12.372;2023-11-19T00:20:27;6.50;99.90
36372;DHT22;22398;51.346;12.372;2023-11-19T00:25:32;6.40;99.90
36372;DHT22;22398;51.346;12.372;2023-11-19T00:30:35;6.20;99.90
36372;DHT22;22398;51.346;12.372;2023-11-19T00:35:38;6.20;99.90
36372;DHT22;22398;51.346;12.372;2023-11-19T00:40:44;6.10;99.90
36372;DHT22;22398;51.346;12.372;2023-11-19T00:45:47;6.10;99.90
36372;DHT22;22398;51.346;12.372;2023-11-19T00:50:52;6.10;99.90
36372;DHT22;22398;51.346;12.372;2023-11-19T00:55:57;6.00;99.90
36372;DHT22;22398;51.346;12.372;2023-11-19T01:01:00;6.10;99.90
36372;DHT22;22398;51.346;12.372;2023-11-19T01:06:04;6.10;99.90
36372;DHT22;22398;51.346;12.372;2023-11-19T01:11:19;6.10;99.90
36372;DHT22;22398;51.346;12.372;2023-11-19T01:16:24;6.10;99.90
36372;DHT22;22398;51.346;12.372;2023-11-19T01:21:29;6.10;99.90
36372;DHT22;22398;51.346;12.372;2023-11-19T01:26:34;6.10;99.90
36372;DHT22;22398;51.346;12.372;2023-11-19T01:31:37;6.20;99.90
36372;DHT22;22398;51.346;12.372;2023-11-19T01:36:41;6.20;99.90
36372;DHT22;22398;51.346;12.372;2023-11-19T01:41:46;6.20;99.90
36372;DHT22;22398;51.346;12.372;2023-11-19T01:46:49;6.30;99.90
36372;DHT22;22398;51.346;12.372;2023-11-19T01:51:54;6.20;99.90
36372;DHT22;22398;51.346;12.372;2023-11-19T01:56:59;6.20;99.90
36372;DHT22;22398;51.346;12.372;2023-11-19T02:02:03;6.20;99.90
36372;DHT22;22398;51.346;12.372;2023-11-19T02:07:08;6.20;99.90
36372;DHT22;22398;51.346;12.372;2023-11-19T02:12:14;6.20;99.90
36372;DHT22;22398;51.346;12.372;2023-11-19T02:17:28;6.10;99.90
36372;DHT22;22398;51.346;12.372;2023-11-19T02:22:34;6.10;99.90
36372;DHT22;22398;51.346;12.372;2023-11-19T02:27:47;6.10;99.90
36372;DHT22;22398;51.346;12.372;2023-11-19T02:32:52;6.10;99.90
36372;DHT22;22398;51.346;12.372;2023-11-19T02:37:56;6.10;99.90
36372;DHT22;22398;51.346;12.372;2023-11-19T02:43:01;6.10;99.90
36372;DHT22;22398;51.346;12.372;2023-11-19T02:48:07;6.10;99.90
36372;DHT22;22398;51.346;12.372;2023-11-19T02:53:12;6.10;99.90
36372;DHT22;22398;51.346;12.372;2023-11-19T02:58:17;6.10;99.90
36372;DHT22;22398;51.346;12.372;2023-11-19T03:03:26;6.10;99.90
36372;DHT22;22398;51.346;12.372;2023-11-19T03:08:35;6.20;99.90
36372;DHT22;22398;51.346;12.372;2023-11-19T03:13:40;6.20;99.90
36372;DHT22;22398;51.346;12.372;2023-11-19T03:18:43;6.30;99.90
36372;DHT22;22398;51.346;12.372;2023-11-19T03:23:47;6.40;99.90
36372;DHT22;22398;51.346;12.372;2023-11-19T03:28:51;6.30;99.90
36372;DHT22;22398;51.346;12.372;2023-11-19T03:33:55;6.30;99.90
36372;DHT22;22398;51.346;12.372;2023-11-19T03:39:00;6.40;99.90
36372;DHT22;22398;51.346;12.372;2023-11-19T03:44:06;6.50;99.90
36372;DHT22;22398;51.346;12.372;2023-11-19T03:49:11;6.50;99.90
36372;DHT22;22398;51.346;12.372;2023-11-19T03:54:15;6.50;99.90
36372;DHT22;22398;51.346;12.372;2023-11-19T03:59:19;6.50;99.90
36372;DHT22;22398;51.346;12.372;2023-11-19T04:04:23;6.60;99.90
36372;DHT22;22398;51.346;12.372;2023-11-19T04:09:27;6.60;99.90
36372;DHT22;22398;51.346;12.372;2023-11-19T04:14:31;6.60;99.90
36372;DHT22;22398;51.346;12.372;2023-11-19T04:19:35;6.70;99.90
36372;DHT22;22398;51.346;12.372;2023-11-19T04:24:38;6.80;99.90
36372;DHT22;22398;51.346;12.372;2023-11-19T04:29:44;6.80;99.90
36372;DHT22;22398;51.346;12.372;2023-11-19T04:34:49;6.90;99.90
36372;DHT22;22398;51.346;12.372;2023-11-19T04:39:53;6.90;99.90
36372;DHT22;22398;51.346;12.372;2023-11-19T04:44:58;7.00;99.90
36372;DHT22;22398;51.346;12.372;2023-11-19T04:50:02;7.00;99.90
36372;DHT22;22398;51.346;12.372;2023-11-19T04:55:06;7.10;99.90
36372;DHT22;22398;51.346;12.372;2023-11-19T05:00:15;7.10;99.90
36372;DHT22;22398;51.346;12.372;2023-11-19T05:05:19;7.10;99.90
36372;DHT22;22398;51.346;12.372;2023-11-19T05:10:23;7.20;99.90
36372;DHT22;22398;51.346;12.372;2023-11-19T05:15:28;7.20;99.90
36372;DHT22;22398;51.346;12.372;2023-11-19T05:20:31;7.20;99.90
36372;DHT22;22398;51.346;12.372;2023-11-19T05:25:36;7.20;99.90
36372;DHT22;22398;51.346;12.372;2023-11-19T05:30:41;7.30;99.90
36372;DHT22;22398;51.346;12.372;2023-11-19T05:35:45;7.30;99.90
36372;DHT22;22398;51.346;12.372;2023-11-19T05:40:48;7.40;99.90
36372;DHT22;22398;51.346;12.372;2023-11-19T05:45:53;7.40;99.90
36372;DHT22;22398;51.346;12.372;2023-11-19T05:50:57;7.50;99.90
36372;DHT22;22398;51.346;12.372;2023-11-19T05:56:01;7.60;99.90
36372;DHT22;22398;51.346;12.372;2023-11-19T06:01:07;7.60;99.90
36372;DHT22;22398;51.346;12.372;2023-11-19T06:06:11;7.60;99.90
36372;DHT22;22398;51.346;12.372;2023-11-19T06:11:15;7.70;99.90
36372;DHT22;22398;51.346;12.372;2023-11-19T06:16:22;7.70;99.90
36372;DHT22;22398;51.346;12.372;2023-11-19T06:21:26;7.80;99.90
36372;DHT22;22398;51.346;12.372;2023-11-19T06:26:29;7.90;99.90
36372;DHT22;22398;51.346;12.372;2023-11-19T06:31:34;7.90;99.90
36372;DHT22;22398;51.346;12.372;2023-11-19T06:36:39;8.00;99.90
36372;DHT22;22398;51.346;12.372;2023-11-19T06:41:45;8.00;99.90
36372;DHT22;22398;51.346;12.372;2023-11-19T06:46:50;8.00;99.90
36372;DHT22;22398;51.346;12.372;2023-11-19T06:51:53;8.00;99.90
36372;DHT22;22398;51.346;12.372;2023-11-19T06:56:57;7.90;99.90
36372;DHT22;22398;51.346;12.372;2023-11-19T07:02:02;7.70;99.90
36372;DHT22;22398;51.346;12.372;2023-11-19T07:07:06;7.70;99.90
36372;DHT22;22398;51.346;12.372;2023-11-19T07:12:10;7.60;99.90
36372;DHT22;22398;51.346;12.372;2023-11-19T07:17:18;7.80;99.90
36372;DHT22;22398;51.346;12.372;2023-11-19T07:22:22;8.00;99.90
36372;DHT22;22398;51.346;12.372;2023-11-19T07:27:26;8.00;99.90
36372;DHT22;22398;51.346;12.372;2023-11-19T07:32:31;8.00;99.90
36372;DHT22;22398;51.346;12.372;2023-11-19T07:37:35;8.10;99.90
36372;DHT22;22398;51.346;12.372;2023-11-19T07:42:39;8.30;99.90
36372;DHT22;22398;51.346;12.372;2023-11-19T07:47:44;8.50;99.90
36372;DHT22;22398;51.346;12.372;2023-11-19T07:52:48;8.60;99.90
36372;DHT22;22398;51.346;12.372;2023-11-19T07:57:53;8.70;99.90
36372;DHT22;22398;51.346;12.372;2023-11-19T08:02:58;8.80;99.90
36372;DHT22;22398;51.346;12.372;2023-11-19T08:08:03;8.80;99.90
36372;DHT22;22398;51.346;12.372;2023-11-19T08:13:07;9.00;99.90
36372;DHT22;22398;51.346;12.372;2023-11-19T08:18:12;9.00;99.90
36372;DHT22;22398;51.346;12.372;2023-11-19T08:23:15;9.00;99.90
36372;DHT22;22398;51.346;12.372;2023-11-19T08:28:20;9.30;99.90
36372;DHT22;22398;51.346;12.372;2023-11-19T08:33:26;9.40;99.90
36372;DHT22;22398;51.346;12.372;2023-11-19T08:38:29;9.60;99.90
36372;DHT22;22398;51.346;12.372;2023-11-19T08:43:33;9.70;99.90
36372;DHT22;22398;51.346;12.372;2023-11-19T08:48:38;9.70;99.90
36372;DHT22;22398;51.346;12.372;2023-11-19T08:53:41;9.70;99.90
36372;DHT22;22398;51.346;12.372;2023-11-19T08:58:45;9.90;99.90
36372;DHT22;22398;51.346;12.372;2023-11-19T09:03:50;9.90;99.90
36372;DHT22;22398;51.346;12.372;2023-11-19T09:08:54;10.00;99.90
36372;DHT22;22398;51.346;12.372;2023-11-19T09:14:02;10.20;99.90
36372;DHT22;22398;51.346;12.372;2023-11-19T09:19:08;10.50;99.90
36372;DHT22;22398;51.346;12.372;2023-11-19T09:24:11;10.60;99.90
36372;DHT22;22398;51.346;12.372;2023-11-19T09:29:17;10.60;99.90
36372;DHT22;22398;51.346;12.372;2023-11-19T09:34:23;10.80;99.90
36372;DHT22;22398;51.346;12.372;2023-11-19T09:39:27;11.10;99.90
36372;DHT22;22398;51.346;12.372;2023-11-19T09:44:31;11.20;99.90
36372;DHT22;22398;51.346;12.372;2023-11-19T09:49:36;11.30;99.90
36372;DHT22;22398;51.346;12.372;2023-11-19T09:54:40;11.40;99.90
36372;DHT22;22398;51.346;12.372;2023-11-19T09:59:44;11.50;99.90
36372;DHT22;22398;51.346;12.372;2023-11-19T10:04:50;11.50;99.90
36372;DHT22;22398;51.346;12.372;2023-11-19T10:09:54;11.50;99.90
36372;DHT22;22398;51.346;12.372;2023-11-19T10:14:58;11.60;99.90
36372;DHT22;22398;51.346;12.372;2023-11-19T10:20:03;11.60;99.90
36372;DHT22;22398;51.346;12.372;2023-11-19T10:25:08;11.60;99.90
36372;DHT22;22398;51.346;12.372;2023-11-19T10:30:25;11.70;99.90
36372;DHT22;22398;51.346;12.372;2023-11-19T10:35:31;11.90;99.90
36372;DHT22;22398;51.346;12.372;2023-11-19T10:40:38;12.10;99.90
36372;DHT22;22398;51.346;12.372;2023-11-19T10:45:43;12.20;99.90
36372;DHT22;22398;51.346;12.372;2023-11-19T10:50:53;12.20;99.90
36372;DHT22;22398;51.346;12.372;2023-11-19T10:55:58;12.40;99.90
36372;DHT22;22398;51.346;12.372;2023-11-19T11:01:02;13.00;99.90
36372;DHT22;22398;51.346;12.372;2023-11-19T11:06:09;13.70;99.90
36372;DHT22;22398;51.346;12.372;2023-11-19T11:11:15;14.10;99.90
36372;DHT22;22398;51.346;12.372;2023-11-19T11:16:20;14.60;99.90
36372;DHT22;22398;51.346;12.372;2023-11-19T11:21:27;14.80;99.90
36372;DHT22;22398;51.346;12.372;2023-11-19T11:26:42;15.00;99.90
36372;DHT22;22398;51.346;12.372;2023-11-19T11:31:56;15.50;99.90
36372;DHT22;22398;51.346;12.372;2023-11-19T11:37:12;15.70;99.90
36372;DHT22;22398;51.346;12.372;2023-11-19T11:42:39;15.60;99.90
36372;DHT22;22398;51.346;12.372;2023-11-19T11:48:12;15.20;99.90
36372;DHT22;22398;51.346;12.372;2023-11-19T11:53:21;14.90;99.90
36372;DHT22;22398;51.346;12.372;2023-11-19T11:58:31;14.10;99.90
36372;DHT22;22398;51.346;12.372;2023-11-19T12:03:36;13.10;99.90
36372;DHT22;22398;51.346;12.372;2023-11-19T12:08:41;12.20;99.90
36372;DHT22;22398;51.346;12.372;2023-11-19T12:13:57;11.90;99.90
36372;DHT22;22398;51.346;12.372;2023-11-19T12:19:04;11.90;99.90
36372;DHT22;22398;51.346;12.372;2023-11-19T12:24:10;12.00;99.90
36372;DHT22;22398;51.346;12.372;2023-11-19T12:29:14;12.10;99.90
36372;DHT22;22398;51.346;12.372;2023-11-19T12:34:51;12.40;99.90
36372;DHT22;22398;51.346;12.372;2023-11-19T12:40:26;12.90;99.90
36372;DHT22;22398;51.346;12.372;2023-11-19T12:45:35;13.10;99.90
36372;DHT22;22398;51.346;12.372;2023-11-19T12:50:54;13.10;99.90
36372;DHT22;22398;51.346;12.372;2023-11-19T12:56:07;13.30;99.90
36372;DHT22;22398;51.346;12.372;2023-11-19T13:01:16;13.50;99.90
36372;DHT22;22398;51.346;12.372;2023-11-19T13:06:20;13.50;99.90
36372;DHT22;22398;51.346;12.372;2023-11-19T13:11:32;13.50;99.90
36372;DHT22;22398;51.346;12.372;2023-11-19T13:16:37;13.40;99.90
36372;DHT22;22398;51.346;12.372;2023-11-19T13:21:42;13.40;99.90
36372;DHT22;22398;51.346;12.372;2023-11-19T13:26:49;13.40;99.90
36372;DHT22;22398;51.346;12.372;2023-11-19T13:31:52;13.50;99.90
36372;DHT22;22398;51.346;12.372;2023-11-19T13:36:56;13.30;99.90
36372;DHT22;22398;51.346;12.372;2023-11-19T13:42:00;13.10;99.90
36372;DHT22;22398;51.346;12.372;2023-11-19T13:47:09;12.90;99.90
36372;DHT22;22398;51.346;12.372;2023-11-19T13:52:13;12.80;99.90
36372;DHT22;22398;51.346;12.372;2023-11-19T13:57:17;12.60;99.90
36372;DHT22;22398;51.346;12.372;2023-11-19T14:02:21;12.50;99.90
36372;DHT22;22398;51.346;12.372;2023-11-19T14:07:24;12.40;99.90
36372;DHT22;22398;51.346;12.372;2023-11-19T14:12:29;12.40;99.90
36372;DHT22;22398;51.346;12.372;2023-11-19T14:17:32;12.50;99.90
36372;DHT22;22398;51.346;12.372;2023-11-19T14:22:36;12.70;99.90
36372;DHT22;22398;51.346;12.372;2023-11-19T14:27:42;12.70;99.90
36372;DHT22;22398;51.346;12.372;2023-11-19T14:32:47;12.70;99.90
36372;DHT22;22398;51.346;12.372;2023-11-19T14:37:51;12.70;99.90
36372;DHT22;22398;51.346;12.372;2023-11-19T14:42:56;12.70;99.90
36372;DHT22;22398;51.346;12.372;2023-11-19T14:47:59;12.70;99.90
36372;DHT22;22398;51.346;12.372;2023-11-19T14:53:03;12.70;99.90
36372;DHT22;22398;51.346;12.372;2023-11-19T14:58:08;12.80;99.90
36372;DHT22;22398;51.346;12.372;2023-11-19T15:03:15;12.80;99.90
36372;DHT22;22398;51.346;12.372;2023-11-19T15:08:21;12.80;99.90
36372;DHT22;22398;51.346;12.372;2023-11-19T15:13:26;12.80;99.90
36372;DHT22;22398;51.346;12.372;2023-11-19T15:18:29;12.80;99.90
36372;DHT22;22398;51.346;12.372;2023-11-19T15:23:33;12.80;99.90
36372;DHT22;22398;51.346;12.372;2023-11-19T15:28:37;12.70;99.90
36372;DHT22;22398;51.346;12.372;2023-11-19T15:33:41;12.60;99.90
36372;DHT22;22398;51.346;12.372;2023-11-19T15:38:45;12.30;99.90
36372;DHT22;22398;51.346;12.372;2023-11-19T15:43:53;12.20;99.90
36372;DHT22;22398;51.346;12.372;2023-11-19T15:48:57;12.20;99.90
36372;DHT22;22398;51.346;12.372;2023-11-19T15:54:00;12.20;99.90
36372;DHT22;22398;51.346;12.372;2023-11-19T15:59:05;12.30;99.90
36372;DHT22;22398;51.346;12.372;2023-11-19T16:04:10;12.30;99.90
36372;DHT22;22398;51.346;12.372;2023-11-19T16:09:13;12.40;99.90
36372;DHT22;22398;51.346;12.372;2023-11-19T16:14:22;12.30;99.90
36372;DHT22;22398;51.346;12.372;2023-11-19T16:19:26;12.20;99.90
36372;DHT22;22398;51.346;12.372;2023-11-19T16:24:30;12.00;99.90
36372;DHT22;22398;51.346;12.372;2023-11-19T16:29:34;11.90;99.90
36372;DHT22;22398;51.346;12.372;2023-11-19T16:34:38;11.80;99.90
36372;DHT22;22398;51.346;12.372;2023-11-19T16:39:44;11.70;99.90
36372;DHT22;22398;51.346;12.372;2023-11-19T16:44:49;11.60;99.90
36372;DHT22;22398;51.346;12.372;2023-11-19T16:49:54;11.50;99.90
36372;DHT22;22398;51.346;12.372;2023-11-19T16:54:57;11.50;99.90
36372;DHT22;22398;51.346;12.372;2023-11-19T17:00:04;11.60;99.90
36372;DHT22;22398;51.346;12.372;2023-11-19T17:05:08;11.60;99.90
36372;DHT22;22398;51.346;12.372;2023-11-19T17:10:12;11.60;99.90
36372;DHT22;22398;51.346;12.372;2023-11-19T17:15:17;11.70;99.90
36372;DHT22;22398;51.346;12.372;2023-11-19T17:20:20;11.70;99.90
36372;DHT22;22398;51.346;12.372;2023-11-19T17:25:23;11.60;99.90
36372;DHT22;22398;51.346;12.372;2023-11-19T17:30:29;11.60;99.90
36372;DHT22;22398;51.346;12.372;2023-11-19T17:35:32;11.40;99.90
36372;DHT22;22398;51.346;12.372;2023-11-19T17:40:36;11.30;99.90
36372;DHT22;22398;51.346;12.372;2023-11-19T17:45:41;11.20;99.90
36372;DHT22;22398;51.346;12.372;2023-11-19T17:50:45;11.30;99.90
36372;DHT22;22398;51.346;12.372;2023-11-19T17:55:50;11.40;99.90
36372;DHT22;22398;51.346;12.372;2023-11-19T18:00:55;11.40;99.90
36372;DHT22;22398;51.346;12.372;2023-11-19T18:05:59;11.50;99.90
36372;DHT22;22398;51.346;12.372;2023-11-19T18:11:02;11.40;99.90
36372;DHT22;22398;51.346;12.372;2023-11-19T18:16:08;11.40;99.90
36372;DHT22;22398;51.346;12.372;2023-11-19T18:21:15;11.40;99.90
36372;DHT22;22398;51.346;12.372;2023-11-19T18:26:18;11.30;99.90
36372;DHT22;22398;51.346;12.372;2023-11-19T18:31:23;11.30;99.90
36372;DHT22;22398;51.346;12.372;2023-11-19T18:36:31;11.20;99.90
36372;DHT22;22398;51.346;12.372;2023-11-19T18:41:36;11.30;99.90
36372;DHT22;22398;51.346;12.372;2023-11-19T18:46:41;11.30;99.90
36372;DHT22;22398;51.346;12.372;2023-11-19T18:51:45;11.30;99.90
36372;DHT22;22398;51.346;12.372;2023-11-19T18:56:48;11.30;99.90
36372;DHT22;22398;51.346;12.372;2023-11-19T19:01:56;11.30;99.90
36372;DHT22;22398;51.346;12.372;2023-11-19T19:06:59;11.40;99.90
36372;DHT22;22398;51.346;12.372;2023-11-19T19:12:04;11.40;99.90
36372;DHT22;22398;51.346;12.372;2023-11-19T19:17:09;11.40;99.90
36372;DHT22;22398;51.346;12.372;2023-11-19T19:22:13;11.50;99.90
36372;DHT22;22398;51.346;12.372;2023-11-19T19:27:17;11.50;99.90
36372;DHT22;22398;51.346;12.372;2023-11-19T19:32:21;11.50;99.90
36372;DHT22;22398;51.346;12.372;2023-11-19T19:37:25;11.50;99.90
36372;DHT22;22398;51.346;12.372;2023-11-19T19:42:29;11.60;99.90
36372;DHT22;22398;51.346;12.372;2023-11-19T19:47:34;11.50;99.90
36372;DHT22;22398;51.346;12.372;2023-11-19T19:52:39;11.50;99.90
36372;DHT22;22398;51.346;12.372;2023-11-19T19:57:43;11.40;99.90
36372;DHT22;22398;51.346;12.372;2023-11-19T20:02:48;11.40;99.90
36372;DHT22;22398;51.346;12.372;2023-11-19T20:07:52;11.40;99.90
36372;DHT22;22398;51.346;12.372;2023-11-19T20:12:59;11.30;99.90
36372;DHT22;22398;51.346;12.372;2023-11-19T20:18:05;11.40;99.90
36372;DHT22;22398;51.346;12.372;2023-11-19T20:23:09;11.40;99.90
36372;DHT22;22398;51.346;12.372;2023-11-19T20:28:12;11.40;99.90
36372;DHT22;22398;51.346;12.372;2023-11-19T20:33:17;11.30;99.90
36372;DHT22;22398;51.346;12.372;2023-11-19T20:38:21;11.20;99.90
36372;DHT22;22398;51.346;12.372;2023-11-19T20:43:25;11.20;99.90
36372;DHT22;22398;51.346;12.372;2023-11-19T20:48:30;11.30;99.90
36372;DHT22;22398;51.346;12.372;2023-11-19T20:53:33;11.30;99.90
36372;DHT22;22398;51.346;12.372;2023-11-19T20:58:37;11.40;99.90
36372;DHT22;22398;51.346;12.372;2023-11-19T21:03:42;11.40;99.90
36372;DHT22;22398;51.346;12.372;2023-11-19T21:08:46;11.40;99.90
36372;DHT22;22398;51.346;12.372;2023-11-19T21:13:50;11.50;99.90
36372;DHT22;22398;51.346;12.372;2023-11-19T21:18:55;11.50;99.90
36372;DHT22;22398;51.346;12.372;2023-11-19T21:23:59;11.50;99.90
36372;DHT22;22398;51.346;12.372;2023-11-19T21:29:02;11.50;99.90
36372;DHT22;22398;51.346;12.372;2023-11-19T21:34:07;11.50;99.90
36372;DHT22;22398;51.346;12.372;2023-11-19T21:39:11;11.50;99.90
36372;DHT22;22398;51.346;12.372;2023-11-19T21:44:15;11.50;99.90
36372;DHT22;22398;51.346;12.372;2023-11-19T21:49:20;11.40;99.90
36372;DHT22;22398;51.346;12.372;2023-11-19T21:54:24;11.30;99.90
36372;DHT22;22398;51.346;12.372;2023-11-19T21:59:28;11.20;99.90
36372;DHT22;22398;51.346;12.372;2023-11-19T22:04:35;11.10;99.90
36372;DHT22;22398;51.346;12.372;2023-11-19T22:09:38;11.10;99.90
36372;DHT22;22398;51.346;12.372;2023-11-19T22:14:43;11.10;99.90
36372;DHT22;22398;51.346;12.372;2023-11-19T22:19:48;11.10;99.90
36372;DHT22;22398;51.346;12.372;2023-11-19T22:24:52;11.20;99.90
36372;DHT22;22398;51.346;12.372;2023-11-19T22:29:55;11.20;99.90
36372;DHT22;22398;51.346;12.372;2023-11-19T22:35:01;11.20;99.90
36372;DHT22;22398;51.346;12.372;2023-11-19T22:40:05;11.30;99.90
36372;DHT22;22398;51.346;12.372;2023-11-19T22:45:09;11.40;99.90
36372;DHT22;22398;51.346;12.372;2023-11-19T22:50:14;11.40;99.90
36372;DHT22;22398;51.346;12.372;2023-11-19T22:55:18;11.40;99.90
36372;DHT22;22398;51.346;12.372;2023-11-19T23:00:21;11.40;99.90
36372;DHT22;22398;51.346;12.372;2023-11-19T23:05:31;11.20;99.90
36372;DHT22;22398;51.346;12.372;2023-11-19T23:10:38;10.90;99.90
36372;DHT22;22398;51.346;12.372;2023-11-19T23:15:42;10.70;99.90
36372;DHT22;22398;51.346;12.372;2023-11-19T23:20:47;10.50;99.90
36372;DHT22;22398;51.346;12.372;2023-11-19T23:25:51;10.30;99.90
36372;DHT22;22398;51.346;12.372;2023-11-19T23:30:54;10.20;99.90
36372;DHT22;22398;51.346;12.372;2023-11-19T23:35:59;10.10;99.90
36372;DHT22;22398;51.346;12.372;2023-11-19T23:41:04;10.10;99.90
36372;DHT22;22398;51.346;12.372;2023-11-19T23:46:08;10.10;99.90
36372;DHT22;22398;51.346;12.372;2023-11-19T23:51:15;10.00;99.90
36372;DHT22;22398;51.346;12.372;2023-11-19T23:56:18;10.00;99.90
